Terminal Aerodrome Forecast
Issued by NWS

Home | Current Version | Previous Version | Text Only | Print | Product List | Glossary On
Versions: 1 2 3 4 5 6 7 8 9 10 11 12 13 14 15 16 17 18 19 20 21 22 23 24 25 26 27 28 29 30
000
FTUS44 KOUN 281123
TAFCSM
TAF
KCSM 281123Z 2812/2912 15008KT P6SM FEW008 BKN150
     FM281600 17014G20KT P6SM FEW025 BKN200
     FM290100 16012KT P6SM VCTS BKN050CB
     FM290500 14012KT P6SM FEW008 BKN100=

USA.gov is the U.S. government's official web portal to all federal, state and local government web resources and services.